createdAt,value
2022-08-29T00:00:01.946Z,11.25
2022-08-29T00:02:52.143Z,15.10
2022-08-29T00:05:25.171Z,9.65
2022-08-29T00:07:58.832Z,12.85
2022-08-29T00:10:27.774Z,12.40
2022-08-29T00:12:57.902Z,11.88
2022-08-29T00:15:28.426Z,17.83
2022-08-29T00:17:55.744Z,14.50
2022-08-29T00:20:34.337Z,15.30
2022-08-29T00:23:06.479Z,9.95
2022-08-29T00:25:34.337Z,16.58
2022-08-29T00:28:02.277Z,12.48
2022-08-29T00:30:30.645Z,11.05
2022-08-29T00:33:00.825Z,14.23
2022-08-29T00:35:37.291Z,10.48
2022-08-29T00:38:06.818Z,15.10
2022-08-29T00:40:38.906Z,12.25
2022-08-29T00:43:06.608Z,12.00
2022-08-29T00:45:34.667Z,13.93
2022-08-29T00:48:15.346Z,12.52
2022-08-29T00:50:50.513Z,11.50
2022-08-29T00:53:23.194Z,14.82
2022-08-29T00:55:51.318Z,14.55
2022-08-29T00:58:28.332Z,10.13
2022-08-29T01:00:58.470Z,15.40
2022-08-29T01:03:27.067Z,10.43
2022-08-29T01:05:54.685Z,11.45
2022-08-29T01:08:21.888Z,10.60
2022-08-29T01:11:07.321Z,13.18
2022-08-29T01:13:41.906Z,11.98
2022-08-29T01:16:11.100Z,13.77
2022-08-29T01:18:41.062Z,9.00
2022-08-29T01:21:13.606Z,13.60
2022-08-29T01:24:10.419Z,10.40
2022-08-29T01:26:37.532Z,14.88
2022-08-29T01:29:05.063Z,15.40
2022-08-29T01:31:56.678Z,15.25
2022-08-29T01:34:28.790Z,10.57
2022-08-29T01:37:01.357Z,11.15
2022-08-29T01:39:34.031Z,12.63
2022-08-29T01:42:05.419Z,12.18
2022-08-29T01:44:33.650Z,11.40
2022-08-29T01:47:03.322Z,10.82
2022-08-29T01:49:33.618Z,12.38
2022-08-29T01:52:02.125Z,11.35
2022-08-29T01:54:30.080Z,11.65
2022-08-29T01:56:57.381Z,11.77
2022-08-29T01:59:27.920Z,8.82
2022-08-29T02:02:40.364Z,16.17
2022-08-29T02:05:08.935Z,11.75
2022-08-29T02:07:35.925Z,13.82
2022-08-29T02:10:03.774Z,10.90
2022-08-29T02:12:31.698Z,11.82
2022-08-29T02:14:59.918Z,10.32
2022-08-29T02:17:28.105Z,12.95
2022-08-29T02:19:55.214Z,10.63
2022-08-29T02:22:24.916Z,11.25
2022-08-29T02:24:51.883Z,15.32
2022-08-29T02:27:19.028Z,11.77
2022-08-29T02:29:46.199Z,11.30
2022-08-29T02:32:14.869Z,12.07
2022-08-29T02:34:44.687Z,13.50
2022-08-29T02:37:17.686Z,10.85
2022-08-29T02:39:47.150Z,11.45
2022-08-29T02:42:14.202Z,12.68
2022-08-29T02:44:41.153Z,12.43
2022-08-29T02:47:09.386Z,11.95
2022-08-29T02:49:36.531Z,13.35
2022-08-29T02:52:06.721Z,16.02
2022-08-29T02:54:34.833Z,15.07
2022-08-29T02:57:03.004Z,13.15
2022-08-29T02:59:29.951Z,12.02
2022-08-29T03:01:57.171Z,14.57
2022-08-29T03:04:24.153Z,9.55
2022-08-29T03:06:51.118Z,12.20
2022-08-29T03:09:18.183Z,17.08
2022-08-29T03:11:47.627Z,14.93
2022-08-29T03:14:19.132Z,9.38
2022-08-29T03:16:46.439Z,10.15
2022-08-29T03:19:13.391Z,11.27
2022-08-29T03:21:41.481Z,12.77
2022-08-29T03:24:08.734Z,13.20
2022-08-29T03:26:40.150Z,12.68
2022-08-29T03:29:07.190Z,11.55
2022-08-29T03:31:35.767Z,13.95
2022-08-29T03:34:02.878Z,11.45
2022-08-29T03:36:29.785Z,12.45
2022-08-29T03:38:56.948Z,12.43
2022-08-29T03:41:28.910Z,12.35
2022-08-29T03:43:56.478Z,13.25
2022-08-29T03:46:24.273Z,14.18
2022-08-29T03:48:51.279Z,12.38
2022-08-29T03:51:19.441Z,15.73
2022-08-29T03:53:47.044Z,12.90
2022-08-29T03:56:18.924Z,14.30
2022-08-29T03:58:52.676Z,15.18
2022-08-29T04:01:22.610Z,11.82
2022-08-29T04:03:50.804Z,12.98
2022-08-29T04:06:18.167Z,10.77
2022-08-29T04:08:48.905Z,14.88
2022-08-29T04:11:19.717Z,12.00
2022-08-29T04:13:48.644Z,15.20
2022-08-29T04:16:19.856Z,12.57
2022-08-29T04:18:52.933Z,12.15
2022-08-29T04:21:19.980Z,10.05
2022-08-29T04:23:48.324Z,11.35
2022-08-29T04:29:06.829Z,11.75
2022-08-29T04:31:34.883Z,13.43
2022-08-29T04:34:02.840Z,9.98
2022-08-29T04:36:29.789Z,15.48
2022-08-29T04:38:57.926Z,9.40
2022-08-29T04:41:25.017Z,12.18
2022-08-29T04:43:51.985Z,12.02
2022-08-29T04:46:24.690Z,10.18
2022-08-29T04:48:53.274Z,9.90
2022-08-29T04:51:21.374Z,12.25
2022-08-29T04:53:49.971Z,12.55
2022-08-29T04:56:17.009Z,15.45
2022-08-29T04:58:47.659Z,13.05
2022-08-29T05:01:17.755Z,11.15
2022-08-29T05:03:52.055Z,10.63
2022-08-29T05:06:22.501Z,11.80
2022-08-29T05:08:58.769Z,13.85
2022-08-29T05:11:30.199Z,9.52
2022-08-29T05:13:58.815Z,16.77
2022-08-29T05:16:26.275Z,15.02
2022-08-29T05:18:54.146Z,11.35
2022-08-29T05:21:34.952Z,16.23
2022-08-29T05:24:05.618Z,13.85
2022-08-29T05:26:43.765Z,11.20
2022-08-29T05:29:12.411Z,10.95
2022-08-29T05:31:42.037Z,11.70
2022-08-29T05:34:32.261Z,11.95
2022-08-29T05:37:00.487Z,12.88
2022-08-29T05:39:27.644Z,13.50
2022-08-29T05:41:56.100Z,11.15
2022-08-29T05:44:23.392Z,13.77
2022-08-29T05:46:50.801Z,9.93
2022-08-29T05:49:22.680Z,10.38
2022-08-29T05:51:53.519Z,10.68
2022-08-29T05:54:20.954Z,11.05
2022-08-29T05:56:50.249Z,10.57
2022-08-29T05:59:19.524Z,11.50
2022-08-29T06:01:47.360Z,9.20
2022-08-29T06:04:14.623Z,10.02
2022-08-29T06:06:42.174Z,11.65
2022-08-29T06:09:11.352Z,13.98
2022-08-29T06:11:40.726Z,9.35
2022-08-29T06:14:07.985Z,10.65
2022-08-29T06:16:35.236Z,12.82
2022-08-29T06:19:02.870Z,12.15
2022-08-29T06:21:31.194Z,9.43
2022-08-29T06:23:58.354Z,10.75
2022-08-29T06:26:27.753Z,8.82
2022-08-29T06:28:55.038Z,10.52
2022-08-29T06:31:28.151Z,11.75
2022-08-29T06:36:29.682Z,10.88
2022-08-29T06:39:02.131Z,12.82
2022-08-29T06:41:29.752Z,10.00
2022-08-29T06:44:00.360Z,13.77
2022-08-29T06:46:33.658Z,10.68
2022-08-29T06:49:04.320Z,9.55
2022-08-29T06:51:33.357Z,9.32
2022-08-29T06:54:02.218Z,14.52
2022-08-29T06:56:32.247Z,15.52
2022-08-29T06:58:59.669Z,14.15
2022-08-29T07:01:27.071Z,18.52
2022-08-29T07:03:57.082Z,11.55
2022-08-29T07:06:24.871Z,12.45
2022-08-29T07:08:55.774Z,9.82
2022-08-29T07:11:27.883Z,9.93
2022-08-29T07:13:57.966Z,10.02
2022-08-29T07:16:27.193Z,11.02
2022-08-29T07:18:55.159Z,9.25
2022-08-29T07:21:24.741Z,7.53
2022-08-29T07:23:54.522Z,10.88
2022-08-29T07:26:27.065Z,7.03
2022-08-29T07:29:03.242Z,10.43
2022-08-29T07:31:31.475Z,5.55
2022-08-29T07:34:02.672Z,10.60
2022-08-29T07:36:31.492Z,10.85
2022-08-29T07:38:58.613Z,9.15
2022-08-29T07:41:26.109Z,12.23
2022-08-29T07:43:53.085Z,8.95
2022-08-29T07:46:21.162Z,7.20
2022-08-29T07:48:48.730Z,9.23
2022-08-29T07:51:19.305Z,9.00
2022-08-29T07:53:46.964Z,6.55
2022-08-29T07:56:40.149Z,10.70
2022-08-29T07:59:07.959Z,9.25
2022-08-29T08:01:36.119Z,9.07
2022-08-29T08:04:04.015Z,8.98
2022-08-29T08:06:31.984Z,7.18
2022-08-29T08:09:01.962Z,8.73
2022-08-29T08:11:29.146Z,8.63
2022-08-29T08:13:57.721Z,7.45
2022-08-29T08:16:27.582Z,9.20
2022-08-29T08:18:56.266Z,6.93
2022-08-29T08:21:25.317Z,7.05
2022-08-29T08:23:53.395Z,4.97
2022-08-29T08:26:21.097Z,6.75
2022-08-29T08:28:51.182Z,8.30
2022-08-29T08:31:19.151Z,6.78
2022-08-29T08:33:47.339Z,7.35
2022-08-29T08:36:32.384Z,8.75
2022-08-29T08:39:00.182Z,6.43
2022-08-29T08:41:27.611Z,8.20
2022-08-29T08:44:04.382Z,7.00
2022-08-29T08:46:44.732Z,9.57
2022-08-29T08:49:21.931Z,10.13
2022-08-29T08:52:01.919Z,6.57
2022-08-29T08:54:34.599Z,11.23
2022-08-29T08:57:11.300Z,5.00
2022-08-29T08:59:44.084Z,7.45
2022-08-29T09:02:25.044Z,6.28
2022-08-29T09:05:20.201Z,9.30
2022-08-29T09:08:12.528Z,5.07
2022-08-29T09:11:03.638Z,10.10
2022-08-29T09:14:03.715Z,7.22
2022-08-29T09:16:36.210Z,7.05
2022-08-29T09:19:09.572Z,5.70
2022-08-29T09:21:48.728Z,5.32
2022-08-29T09:24:26.306Z,10.63
2022-08-29T09:26:53.716Z,7.13
2022-08-29T09:29:28.802Z,9.20
2022-08-29T09:32:10.713Z,5.78
2022-08-29T09:35:08.484Z,6.07
2022-08-29T09:37:32.880Z,8.50
2022-08-29T09:40:16.580Z,7.45
2022-08-29T09:43:09.213Z,7.38
2022-08-29T09:45:36.811Z,4.35
2022-08-29T09:48:17.697Z,9.25
2022-08-29T09:50:45.478Z,7.57
2022-08-29T09:53:24.742Z,9.15
2022-08-29T09:55:53.795Z,7.63
2022-08-29T09:58:24.382Z,8.20
2022-08-29T10:01:00.659Z,7.97
2022-08-29T10:03:33.021Z,4.78
2022-08-29T10:06:15.557Z,5.38
2022-08-29T10:08:57.207Z,6.35
2022-08-29T10:11:31.062Z,7.05
2022-08-29T10:14:09.783Z,6.03
2022-08-29T10:16:51.996Z,8.80
2022-08-29T10:19:26.061Z,5.82
2022-08-29T10:22:29.369Z,6.70
2022-08-29T10:25:09.025Z,5.35
2022-08-29T10:27:55.879Z,6.95
2022-08-29T10:30:32.575Z,6.10
2022-08-29T10:33:05.854Z,3.55
2022-08-29T10:35:55.555Z,5.90
2022-08-29T10:38:46.792Z,5.05
2022-08-29T10:41:32.420Z,6.43
2022-08-29T10:46:54.342Z,7.15
2022-08-29T10:49:44.869Z,4.72
2022-08-29T10:52:33.502Z,7.10
2022-08-29T10:55:21.156Z,3.60
2022-08-29T10:58:13.043Z,3.67
2022-08-29T11:00:49.565Z,5.47
2022-08-29T11:03:40.701Z,4.15
2022-08-29T11:06:30.529Z,9.77
2022-08-29T11:09:41.823Z,9.18
2022-08-29T11:12:34.463Z,5.70
2022-08-29T11:15:20.807Z,6.07
2022-08-29T11:17:58.688Z,13.93
2022-08-29T11:20:34.154Z,4.47
2022-08-29T11:23:18.725Z,7.70
2022-08-29T11:25:47.391Z,4.90
2022-08-29T11:31:43.763Z,6.43
2022-08-29T11:34:32.112Z,4.07
2022-08-29T11:37:34.205Z,6.68
2022-08-29T11:40:12.194Z,4.22
2022-08-29T11:42:51.217Z,6.38
2022-08-29T11:45:37.494Z,8.25
2022-08-29T11:48:34.049Z,9.43
2022-08-29T11:51:38.534Z,5.35
2022-08-29T11:54:25.209Z,4.05
2022-08-29T11:57:12.668Z,4.35
2022-08-29T11:59:48.767Z,7.78
2022-08-29T12:02:31.177Z,4.65
2022-08-29T12:05:07.788Z,5.45
2022-08-29T12:07:42.703Z,6.78
2022-08-29T12:10:25.145Z,6.05
2022-08-29T12:13:00.768Z,3.83
2022-08-29T12:15:28.448Z,4.53
2022-08-29T12:18:22.867Z,5.32
2022-08-29T12:20:55.959Z,6.30
2022-08-29T12:23:35.458Z,5.13
2022-08-29T12:26:25.351Z,5.97
2022-08-29T12:29:01.928Z,7.35
2022-08-29T12:32:02.234Z,4.45
2022-08-29T12:34:52.583Z,3.58
2022-08-29T12:37:24.069Z,6.38
2022-08-29T12:39:57.268Z,5.78
2022-08-29T12:42:46.667Z,5.50
2022-08-29T12:45:19.470Z,4.53
2022-08-29T12:48:08.122Z,5.82
2022-08-29T12:50:45.956Z,6.93
2022-08-29T12:53:30.213Z,7.10
2022-08-29T12:56:00.428Z,3.50
2022-08-29T12:59:05.559Z,6.22
2022-08-29T13:01:40.838Z,10.55
2022-08-29T13:04:11.430Z,4.65
2022-08-29T13:06:51.683Z,4.18
2022-08-29T13:09:32.962Z,4.63
2022-08-29T13:12:23.658Z,5.82
2022-08-29T13:15:08.213Z,8.52
2022-08-29T13:17:40.584Z,4.93
2022-08-29T13:20:38.817Z,6.68
2022-08-29T13:23:06.020Z,6.20
2022-08-29T13:25:42.623Z,5.70
2022-08-29T13:28:16.029Z,5.13
2022-08-29T13:31:02.144Z,4.32
2022-08-29T13:33:35.248Z,5.53
2022-08-29T13:36:44.333Z,8.10
2022-08-29T13:39:26.548Z,5.38
2022-08-29T13:42:03.159Z,5.38
2022-08-29T13:44:58.852Z,5.53
2022-08-29T13:47:30.600Z,8.18
2022-08-29T13:50:04.693Z,4.32
2022-08-29T13:52:34.486Z,7.43
2022-08-29T13:55:02.651Z,7.28
2022-08-29T13:57:34.861Z,10.05
2022-08-29T14:00:07.623Z,3.15
2022-08-29T14:02:35.478Z,5.82
2022-08-29T14:05:02.599Z,6.32
2022-08-29T14:07:31.662Z,4.88
2022-08-29T14:09:59.411Z,4.93
2022-08-29T14:12:33.850Z,5.25
2022-08-29T14:15:09.696Z,6.03
2022-08-29T14:17:41.901Z,6.80
2022-08-29T14:20:10.518Z,6.20
2022-08-29T14:22:37.751Z,3.05
2022-08-29T14:25:06.822Z,5.22
2022-08-29T14:27:34.627Z,3.65
2022-08-29T14:30:02.034Z,6.07
2022-08-29T14:32:29.867Z,5.18
2022-08-29T14:34:57.300Z,3.80
2022-08-29T14:37:24.373Z,4.63
2022-08-29T14:39:52.105Z,4.05
2022-08-29T14:42:20.341Z,3.58
2022-08-29T14:44:47.791Z,4.35
2022-08-29T14:47:14.967Z,4.57
2022-08-29T14:49:42.684Z,7.63
2022-08-29T14:52:15.153Z,5.97
2022-08-29T14:54:43.396Z,5.60
2022-08-29T14:57:12.437Z,5.75
2022-08-29T14:59:39.996Z,4.47
2022-08-29T15:02:08.542Z,17.85
2022-08-29T15:04:38.405Z,18.55
2022-08-29T15:07:11.937Z,4.57
2022-08-29T15:09:42.001Z,6.00
2022-08-29T15:12:11.939Z,4.72
2022-08-29T15:14:39.507Z,4.15
2022-08-29T15:17:08.005Z,6.50
2022-08-29T15:20:18.173Z,7.03
2022-08-29T15:22:25.337Z,5.15
2022-08-29T15:24:53.351Z,6.22
2022-08-29T15:27:27.297Z,4.93
2022-08-29T15:29:57.685Z,5.97
2022-08-29T15:32:25.542Z,6.75
2022-08-29T15:34:53.808Z,8.35
2022-08-29T15:37:22.417Z,7.85
2022-08-29T15:39:54.602Z,5.43
2022-08-29T15:42:30.262Z,7.72
2022-08-29T15:45:00.974Z,6.70
2022-08-29T15:47:33.570Z,5.30
2022-08-29T15:50:02.323Z,6.10
2022-08-29T15:52:31.176Z,4.45
2022-08-29T15:54:58.833Z,5.30
2022-08-29T15:57:26.765Z,3.03
2022-08-29T15:59:58.051Z,3.63
2022-08-29T16:02:27.961Z,5.78
2022-08-29T16:04:57.325Z,7.28
2022-08-29T16:07:29.120Z,4.55
2022-08-29T16:10:01.068Z,5.03
2022-08-29T16:12:31.036Z,6.45
2022-08-29T16:15:00.447Z,5.40
2022-08-29T16:17:31.244Z,9.20
2022-08-29T16:20:12.079Z,6.88
2022-08-29T16:22:41.181Z,4.65
2022-08-29T16:25:09.984Z,3.38
2022-08-29T16:27:37.502Z,4.68
2022-08-29T16:30:09.954Z,6.38
2022-08-29T16:32:38.848Z,4.10
2022-08-29T16:35:07.054Z,5.53
2022-08-29T16:37:34.290Z,6.65
2022-08-29T16:40:03.880Z,7.00
2022-08-29T16:42:34.202Z,8.57
2022-08-29T16:45:06.167Z,9.35
2022-08-29T16:47:34.807Z,3.53
2022-08-29T16:50:06.555Z,4.28
2022-08-29T16:52:33.795Z,6.28
2022-08-29T16:55:01.185Z,7.25
2022-08-29T16:57:28.308Z,4.18
2022-08-29T16:59:55.691Z,7.25
2022-08-29T17:02:23.365Z,6.68
2022-08-29T17:04:51.440Z,6.57
2022-08-29T17:07:18.544Z,4.78
2022-08-29T17:09:45.819Z,4.22
2022-08-29T17:12:13.415Z,4.35
2022-08-29T17:14:41.081Z,4.05
2022-08-29T17:17:08.338Z,5.82
2022-08-29T17:19:38.739Z,5.50
2022-08-29T17:22:10.323Z,5.97
2022-08-29T17:24:37.770Z,4.28
2022-08-29T17:27:05.475Z,3.55
2022-08-29T17:29:35.157Z,6.63
2022-08-29T17:32:10.087Z,4.65
2022-08-29T17:34:39.385Z,5.85
2022-08-29T17:37:08.686Z,6.25
2022-08-29T17:39:41.866Z,4.03
2022-08-29T17:42:09.552Z,5.70
2022-08-29T17:44:36.930Z,7.15
2022-08-29T17:47:04.333Z,4.07
2022-08-29T17:49:36.885Z,5.50
2022-08-29T17:52:04.021Z,4.28
2022-08-29T17:54:32.290Z,3.70
2022-08-29T17:57:02.304Z,9.20
2022-08-29T17:59:32.921Z,7.57
2022-08-29T18:02:05.229Z,8.50
2022-08-29T18:04:32.667Z,8.18
2022-08-29T18:06:59.724Z,5.68
2022-08-29T18:09:27.432Z,7.75
2022-08-29T18:11:58.292Z,5.65
2022-08-29T18:14:27.276Z,6.50
2022-08-29T18:16:55.368Z,7.13
2022-08-29T18:19:27.098Z,6.10
2022-08-29T18:21:54.759Z,7.47
2022-08-29T18:24:24.536Z,5.90
2022-08-29T18:26:54.072Z,10.52
2022-08-29T18:29:21.279Z,5.78
2022-08-29T18:31:49.177Z,7.90
2022-08-29T18:34:17.608Z,8.35
2022-08-29T18:36:46.754Z,6.53
2022-08-29T18:39:15.956Z,9.18
2022-08-29T18:41:45.814Z,7.10
2022-08-29T18:44:15.061Z,8.88
2022-08-29T18:46:47.906Z,8.43
2022-08-29T18:49:19.797Z,8.55
2022-08-29T18:51:47.319Z,7.13
2022-08-29T18:54:18.783Z,5.85
2022-08-29T18:56:46.902Z,7.70
2022-08-29T18:59:14.508Z,7.03
2022-08-29T19:01:44.773Z,6.10
2022-08-29T19:04:11.990Z,6.47
2022-08-29T19:06:39.370Z,6.30
2022-08-29T19:09:06.505Z,7.68
2022-08-29T19:11:33.611Z,5.82
2022-08-29T19:14:00.824Z,7.60
2022-08-29T19:16:28.446Z,7.97
2022-08-29T19:18:55.808Z,8.05
2022-08-29T19:21:24.162Z,4.88
2022-08-29T19:23:53.411Z,7.00
2022-08-29T19:26:28.942Z,6.47
2022-08-29T19:28:59.092Z,8.35
2022-08-29T19:31:27.946Z,8.52
2022-08-29T19:33:55.133Z,8.02
2022-08-29T19:36:23.603Z,10.75
2022-08-29T19:38:51.039Z,7.43
2022-08-29T19:41:18.720Z,9.93
2022-08-29T19:43:50.573Z,11.63
2022-08-29T19:46:22.002Z,6.78
2022-08-29T19:48:51.190Z,9.02
2022-08-29T19:51:21.154Z,10.52
2022-08-29T19:53:48.728Z,8.90
2022-08-29T19:56:17.690Z,7.88
2022-08-29T19:58:44.989Z,10.18
2022-08-29T20:01:12.046Z,11.32
2022-08-29T20:03:44.909Z,7.85
2022-08-29T20:06:14.856Z,7.22
2022-08-29T20:08:48.420Z,8.18
2022-08-29T20:11:22.126Z,9.32
2022-08-29T20:13:51.446Z,9.30
2022-08-29T20:16:24.193Z,10.13
2022-08-29T20:18:53.024Z,9.93
2022-08-29T20:21:23.517Z,8.55
2022-08-29T20:23:57.581Z,13.27
2022-08-29T20:26:28.472Z,9.93
2022-08-29T20:28:55.983Z,9.30
2022-08-29T20:31:23.170Z,9.57
2022-08-29T20:33:53.560Z,10.55
2022-08-29T20:36:41.596Z,9.43
2022-08-29T20:39:14.253Z,10.25
2022-08-29T20:41:42.101Z,9.27
2022-08-29T20:44:10.248Z,9.45
2022-08-29T20:46:44.630Z,17.42
2022-08-29T20:49:17.344Z,8.17
2022-08-29T20:51:44.608Z,10.60
2022-08-29T20:54:14.569Z,10.60
2022-08-29T20:56:42.517Z,11.43
2022-08-29T20:59:10.658Z,8.77
2022-08-29T21:01:38.410Z,9.23
2022-08-29T21:04:25.617Z,8.75
2022-08-29T21:06:58.940Z,9.35
2022-08-29T21:09:27.081Z,9.40
2022-08-29T21:11:55.073Z,13.85
2022-08-29T21:14:22.992Z,11.93
2022-08-29T21:16:52.256Z,7.95
2022-08-29T21:19:19.720Z,7.00
2022-08-29T21:21:47.186Z,12.77
2022-08-29T21:24:15.837Z,8.45
2022-08-29T21:26:45.480Z,9.38
2022-08-29T21:29:12.546Z,10.05
2022-08-29T21:31:42.155Z,16.27
2022-08-29T21:34:13.045Z,11.90
2022-08-29T21:36:45.479Z,11.10
2022-08-29T21:39:13.651Z,12.00
2022-08-29T21:41:47.222Z,11.55
2022-08-29T21:44:15.352Z,8.95
2022-08-29T21:46:44.887Z,9.40
2022-08-29T21:49:17.123Z,8.13
2022-08-29T21:51:45.585Z,9.80
2022-08-29T21:54:17.137Z,12.45
2022-08-29T21:56:45.839Z,10.98
2022-08-29T21:59:14.747Z,13.52
2022-08-29T22:01:43.889Z,10.30
2022-08-29T22:04:19.186Z,10.50
2022-08-29T22:06:56.854Z,17.00
2022-08-29T22:09:25.703Z,7.53
2022-08-29T22:11:56.321Z,7.80
2022-08-29T22:14:43.605Z,7.90
2022-08-29T22:17:11.311Z,8.82
2022-08-29T22:19:39.037Z,10.82
2022-08-29T22:22:06.631Z,7.35
2022-08-29T22:24:37.668Z,10.60
2022-08-29T22:27:05.391Z,9.30
2022-08-29T22:29:33.611Z,11.48
2022-08-29T22:32:01.032Z,13.52
2022-08-29T22:34:28.333Z,9.50
2022-08-29T22:36:58.993Z,11.70
2022-08-29T22:39:26.476Z,8.77
2022-08-29T22:41:55.784Z,15.48
2022-08-29T22:47:10.529Z,7.50
2022-08-29T22:49:38.748Z,9.20
2022-08-29T22:52:11.622Z,8.18
2022-08-29T22:54:42.273Z,11.32
2022-08-29T22:57:15.505Z,10.73
2022-08-29T22:59:43.946Z,14.20
2022-08-29T23:02:12.492Z,11.57
2022-08-29T23:04:40.417Z,19.60
2022-08-29T23:07:11.853Z,11.30
2022-08-29T23:09:41.941Z,9.88
2022-08-29T23:12:12.570Z,12.75
2022-08-29T23:14:42.265Z,15.93
2022-08-29T23:17:10.286Z,9.50
2022-08-29T23:19:41.430Z,10.30
2022-08-29T23:22:13.422Z,12.13
2022-08-29T23:24:53.889Z,9.75
2022-08-29T23:27:29.342Z,8.93
2022-08-29T23:29:58.873Z,9.90
2022-08-29T23:32:27.793Z,13.30
2022-08-29T23:34:55.974Z,10.35
2022-08-29T23:37:24.354Z,10.88
2022-08-29T23:39:56.186Z,9.88
2022-08-29T23:42:23.245Z,9.38
2022-08-29T23:44:50.893Z,13.15
2022-08-29T23:47:19.126Z,12.32
2022-08-29T23:49:49.155Z,10.70
2022-08-29T23:52:17.520Z,9.27
2022-08-29T23:54:44.993Z,13.90
2022-08-29T23:57:12.660Z,10.32
2022-08-29T23:59:59.749Z,12.75
